IST,Max TemperatureF,Mean TemperatureF,Min TemperatureF,Max Dew PointF,MeanDew PointF,Min DewpointF,Max Humidity, Mean Humidity, Min Humidity, Max Sea Level PressureIn, Mean Sea Level PressureIn, Min Sea Level PressureIn, Max VisibilityMiles, Mean VisibilityMiles, Min VisibilityMiles, Max Wind SpeedMPH, Mean Wind SpeedMPH, Max Gust SpeedMPH,PrecipitationIn, CloudCover, Events, WindDirDegrees
2012-10-1,96,88,80,81,79,77,89,76,53,29.86,29.79,29.71,3,2,1,14,4,,0.00,2,Thunderstorm,163
2012-10-2,97,88,79,81,79,77,94,76,52,29.84,29.76,29.68,3,2,1,14,5,,0.00,2,,199
2012-10-3,95,88,80,81,79,77,94,78,55,29.77,29.68,29.56,3,2,1,16,9,,0.00,2,,225
2012-10-4,92,84,77,81,78,75,100,86,62,29.69,29.62,29.53,2,1,1,12,8,,0.79,4,Rain-Thunderstorm,208
2012-10-5,89,83,77,79,78,77,97,87,64,29.76,29.68,29.59,2,1,1,7,2,,0.00,4,Fog,126
2012-10-6,92,84,77,80,78,72,94,81,45,29.83,29.76,29.71,2,1,0,7,1,,0.00,2,Fog,126
2012-10-7,89,84,79,79,78,75,94,82,61,29.86,29.78,29.71,3,2,1,7,2,,0.00,4,,130
2012-10-8,93,85,77,79,77,73,94,80,48,29.84,29.76,29.68,4,2,1,12,2,,0.08,3,Rain-Thunderstorm,113
2012-10-9,95,86,77,79,77,75,95,78,48,29.83,29.74,29.65,2,2,0,14,3,,0.00,2,Fog,137
2012-10-10,88,82,77,79,77,73,98,83,61,29.81,29.74,29.68,3,2,1,12,2,,0.16,4,Rain,133
2012-10-11,91,84,76,81,76,73,100,83,49,29.83,29.74,29.68,3,2,1,16,4,,0.31,3,Rain-Thunderstorm,299
2012-10-12,90,82,75,81,76,75,94,87,61,29.86,29.79,29.71,2,2,1,12,2,,0.16,4,Rain-Thunderstorm,239
2012-10-13,90,83,76,79,76,75,95,81,57,29.89,29.81,29.74,2,1,0,6,1,,0.00,4,Fog,211
2012-10-14,87,82,77,79,76,73,94,84,64,29.89,29.82,29.74,2,1,1,12,2,,0.20,4,Rain-Thunderstorm,113
2012-10-15,89,81,73,77,74,70,95,79,44,29.96,29.87,29.80,3,2,0,9,3,,0.00,2,Fog,12
2012-10-16,89,82,74,75,72,69,94,73,42,29.98,29.90,29.83,2,2,1,8,2,,0.00,1,Fog,13
2012-10-17,91,82,74,72,68,61,89,63,29,29.98,29.89,29.80,2,2,1,10,4,,0.00,2,,13
2012-10-18,92,82,73,70,68,63,88,65,31,29.98,29.88,29.80,2,2,1,7,2,,0.00,1,,5
2012-10-19,91,81,71,72,69,65,83,66,34,29.98,29.89,29.83,2,2,1,8,2,,0.00,1,,8
2012-10-20,91,82,72,70,67,62,88,63,31,30.01,29.91,29.86,3,2,1,9,3,,0.00,1,,16
2012-10-21,91,81,71,72,67,63,94,63,32,30.01,29.92,29.86,2,2,1,9,2,,0.00,1,Fog,9
2012-10-22,90,80,71,68,65,63,78,61,31,30.00,29.90,29.86,2,2,1,9,2,,0.00,1,,13
2012-10-23,90,80,71,70,68,64,88,67,35,29.99,29.88,29.80,2,2,1,9,2,,0.00,2,,354
2012-10-24,89,78,68,70,64,57,88,63,27,29.92,29.84,29.77,2,2,1,9,2,,0.00,,,349
2012-10-25,90,79,68,72,66,60,85,65,28,29.91,29.82,29.74,2,1,1,9,2,,0.00,,,7
2012-10-26,90,80,70,73,68,64,94,68,35,29.93,29.84,29.77,2,1,1,8,2,,0.00,,,20
2012-10-27,88,79,70,68,61,52,88,58,19,29.94,29.85,29.80,2,2,1,13,5,,0.00,,,360
2012-10-28,88,77,66,65,60,57,73,55,30,29.95,29.86,29.80,2,2,1,12,5,,0.00,1,,351
2012-10-29,89,78,68,68,64,60,78,61,32,29.92,29.84,29.77,2,2,1,12,5,,0.00,1,,349
2012-10-30,89,79,69,68,65,63,88,64,32,29.91,29.83,29.77,2,2,1,9,4,,0.00,1,,9
2012-10-31,90,80,71,70,67,65,88,65,40,29.94,29.85,29.80,2,2,1,8,2,,0.00,2,,18